KREO/REO METAR and TAF weather

Enter ICAO airport designator
Station Type Date Time Source
KREO METAR 2020/10/20 17:52 UTC NOAA

KREO 201752Z AUTO 06008KT 16/01 A3012 RMK AO1 SLP187 T01560011 10156 20061 58003


Station Type Date Time Source
KREO Decoded METAR 2020/10/20 17:52 UTC NOAA

ROME, OR, United States (KREO) 42-35N 117-52W 1235M
Oct 20, 2020 - 01:52 PM EDT / 2020.10.20 1752 UTC
Wind: from the ENE (060 degrees) at 9 MPH (8 KT):0
Temperature: 60.1 F (15.6 C)
Dew Point: 34.0 F (1.1 C)
Relative Humidity: 37%
Pressure (altimeter): 30.12 in. Hg (1019 hPa)
Pressure tendency: 0.01 inches (0.3 hPa) lower than three hours ago
ob: KREO 201752Z AUTO 06008KT 16/01 A3012 RMK AO1 SLP187 T01560011 10156 20061 58003
cycle: 18

Station Type Date Time Source
KREO TAF UTC NOAA

Error!

Example: see airport list